Hunter, Utah
Current Conditions -  °F | °C
As of 7:53 AM on Thursday 18 Dec 2014 (Local Time) from KSLC Reporting Station
Overcast Overcast  
Wind Chill: 29°   Ceiling: 3800
Heat Index: 33°   Visibility: 7mi
Dew Point: 30°   Wind: 5mph
Humidity: 89%   Direction: 180°S
Pressure: 30.12"   Gusts: NA
Location:  40.6939°N, 112.009°W
Report Text: KSLC 181453Z 18004KT 7SM BKN038 BKN060 OVC080 01/M01 A3012 RMK AO2 SLP209 T00061011 53014 $
Loading
Personal Weather Stations






























Interactive Weather Map New forecast layout! Learn more

10-Day Weather Forecast

Advertisements
Track Severe Weather on mobile